createdAt,value
2022-09-15T00:01:40.052Z,99.90
2022-09-15T00:04:09.216Z,99.90
2022-09-15T00:06:37.770Z,99.90
2022-09-15T00:09:06.932Z,99.90
2022-09-15T00:11:37.705Z,99.90
2022-09-15T00:14:09.088Z,99.90
2022-09-15T00:16:37.946Z,99.90
2022-09-15T00:19:06.884Z,99.90
2022-09-15T00:21:38.614Z,99.90
2022-09-15T00:24:07.767Z,99.90
2022-09-15T00:26:37.638Z,99.90
2022-09-15T00:29:07.743Z,99.90
2022-09-15T00:31:36.316Z,99.90
2022-09-15T00:34:05.154Z,99.90
2022-09-15T00:36:34.077Z,99.90
2022-09-15T00:39:02.744Z,99.90
2022-09-15T00:41:31.906Z,99.90
2022-09-15T00:44:02.928Z,99.90
2022-09-15T00:46:35.424Z,99.90
2022-09-15T00:49:07.801Z,99.90
2022-09-15T00:51:42.044Z,99.90
2022-09-15T00:54:17.393Z,99.90
2022-09-15T00:56:48.870Z,99.90
2022-09-15T00:59:23.864Z,99.90
2022-09-15T01:01:58.731Z,99.90
2022-09-15T01:04:27.507Z,99.90
2022-09-15T01:07:01.591Z,99.90
2022-09-15T01:09:33.749Z,99.90
2022-09-15T01:12:03.705Z,99.90
2022-09-15T01:14:32.317Z,99.90
2022-09-15T01:17:07.117Z,99.90
2022-09-15T01:20:05.773Z,99.90
2022-09-15T01:22:38.690Z,99.90
2022-09-15T01:25:16.178Z,99.90
2022-09-15T01:28:20.576Z,99.90
2022-09-15T01:30:53.379Z,99.90
2022-09-15T01:33:31.295Z,99.90
2022-09-15T01:36:05.856Z,99.90
2022-09-15T01:38:47.743Z,99.90
2022-09-15T01:41:18.878Z,99.90
2022-09-15T01:43:52.917Z,99.90
2022-09-15T01:46:25.450Z,99.90
2022-09-15T01:48:56.997Z,99.90
2022-09-15T01:51:27.250Z,99.90
2022-09-15T01:53:57.530Z,99.90
2022-09-15T01:56:26.010Z,99.90
2022-09-15T01:58:54.434Z,99.90
2022-09-15T02:01:31.821Z,99.90
2022-09-15T02:04:06.334Z,99.90
2022-09-15T02:06:40.851Z,99.90
2022-09-15T02:09:14.615Z,99.90
2022-09-15T02:11:52.276Z,99.90
2022-09-15T02:14:28.431Z,99.90
2022-09-15T02:16:59.160Z,99.90
2022-09-15T02:19:32.528Z,99.90
2022-09-15T02:22:07.814Z,99.90
2022-09-15T02:24:41.871Z,99.90
2022-09-15T02:27:15.679Z,99.90
2022-09-15T02:29:48.764Z,99.90
2022-09-15T02:32:23.242Z,99.90
2022-09-15T02:34:55.166Z,99.90
2022-09-15T02:37:26.412Z,99.90
2022-09-15T02:39:58.208Z,99.90
2022-09-15T02:42:28.056Z,99.90
2022-09-15T02:44:57.112Z,99.90
2022-09-15T02:47:28.261Z,99.90
2022-09-15T02:49:57.422Z,99.90
2022-09-15T02:52:26.309Z,99.90
2022-09-15T02:54:54.726Z,99.90
2022-09-15T02:57:23.662Z,99.90
2022-09-15T03:00:09.140Z,99.90
2022-09-15T03:02:39.569Z,99.90
2022-09-15T03:05:09.854Z,99.90
2022-09-15T03:07:38.631Z,99.90
2022-09-15T03:10:08.696Z,99.90
2022-09-15T03:12:39.352Z,99.90
2022-09-15T03:15:09.818Z,99.90
2022-09-15T03:17:42.615Z,99.90
2022-09-15T03:20:13.277Z,99.90
2022-09-15T03:22:43.445Z,99.90
2022-09-15T03:25:12.298Z,99.90
2022-09-15T03:27:41.103Z,99.90
2022-09-15T03:30:11.984Z,99.90
2022-09-15T03:32:42.204Z,99.90
2022-09-15T03:35:11.118Z,99.90
2022-09-15T03:37:39.680Z,99.90
2022-09-15T03:40:10.465Z,99.90
2022-09-15T03:42:39.066Z,99.90
2022-09-15T03:45:08.489Z,99.90
2022-09-15T03:47:36.841Z,99.90
2022-09-15T03:50:07.982Z,99.90
2022-09-15T03:52:36.415Z,99.90
2022-09-15T03:55:05.214Z,99.90
2022-09-15T03:57:33.679Z,99.90
2022-09-15T04:00:02.014Z,99.90
2022-09-15T04:02:33.027Z,99.90
2022-09-15T04:05:02.356Z,99.90
2022-09-15T04:07:32.276Z,99.90
2022-09-15T04:10:01.086Z,99.90
2022-09-15T04:12:32.530Z,99.90
2022-09-15T04:15:01.317Z,99.90
2022-09-15T04:17:29.775Z,99.90
2022-09-15T04:19:58.217Z,99.90
2022-09-15T04:22:27.747Z,99.90
2022-09-15T04:24:57.688Z,99.90
2022-09-15T04:27:26.226Z,99.90
2022-09-15T04:29:54.870Z,99.90
2022-09-15T04:32:23.415Z,99.90
2022-09-15T04:34:51.905Z,99.90
2022-09-15T04:37:20.351Z,99.90
2022-09-15T04:39:49.296Z,99.90
2022-09-15T04:42:21.105Z,99.90
2022-09-15T04:44:49.614Z,99.90
2022-09-15T04:47:18.354Z,99.90
2022-09-15T04:49:47.175Z,99.90
2022-09-15T04:52:15.825Z,99.90
2022-09-15T04:54:44.244Z,99.90
2022-09-15T04:57:12.791Z,99.90
2022-09-15T04:59:42.720Z,99.90
2022-09-15T05:02:11.219Z,99.90
2022-09-15T05:04:39.697Z,99.90
2022-09-15T05:07:08.111Z,99.90
2022-09-15T05:09:36.686Z,99.90
2022-09-15T05:12:05.384Z,99.90
2022-09-15T05:14:33.880Z,99.90
2022-09-15T05:17:03.996Z,99.90
2022-09-15T05:19:32.526Z,99.90
2022-09-15T05:22:01.263Z,99.90
2022-09-15T05:24:29.763Z,99.90
2022-09-15T05:26:58.194Z,99.90
2022-09-15T05:29:26.866Z,99.90
2022-09-15T05:31:55.486Z,99.90
2022-09-15T05:34:25.467Z,99.90
2022-09-15T05:36:53.875Z,99.90
2022-09-15T05:39:22.516Z,99.90
2022-09-15T05:41:50.877Z,99.90
2022-09-15T05:44:21.468Z,99.90
2022-09-15T05:46:50.225Z,99.90
2022-09-15T05:49:18.759Z,99.90
2022-09-15T05:51:48.770Z,99.90
2022-09-15T05:54:17.297Z,99.90
2022-09-15T05:56:45.873Z,99.90
2022-09-15T05:59:14.481Z,99.90
2022-09-15T06:01:42.945Z,99.90
2022-09-15T06:04:12.458Z,99.90
2022-09-15T06:06:40.777Z,99.90
2022-09-15T06:09:10.800Z,99.90
2022-09-15T06:11:39.236Z,99.90
2022-09-15T06:14:07.663Z,99.90
2022-09-15T06:16:36.869Z,99.90
2022-09-15T06:19:05.419Z,99.90
2022-09-15T06:21:34.811Z,99.90
2022-09-15T06:24:07.243Z,99.90
2022-09-15T06:26:37.486Z,99.90
2022-09-15T06:29:06.891Z,99.90
2022-09-15T06:31:36.015Z,99.90
2022-09-15T06:34:05.593Z,99.90
2022-09-15T06:36:34.496Z,99.90
2022-09-15T06:39:03.301Z,99.90
2022-09-15T06:41:47.444Z,99.90
2022-09-15T06:44:22.371Z,99.90
2022-09-15T06:46:51.068Z,99.90
2022-09-15T06:49:19.658Z,99.90
2022-09-15T06:51:48.051Z,99.90
2022-09-15T06:54:17.262Z,99.90
2022-09-15T06:56:46.237Z,99.90
2022-09-15T06:59:15.605Z,99.90
2022-09-15T07:01:45.703Z,99.90
2022-09-15T07:04:14.384Z,99.90
2022-09-15T07:06:42.842Z,99.90
2022-09-15T07:09:12.395Z,99.90
2022-09-15T07:11:41.238Z,99.90
2022-09-15T07:14:09.752Z,99.90
2022-09-15T07:16:38.456Z,99.90
2022-09-15T07:19:08.534Z,99.90
2022-09-15T07:21:37.505Z,99.90
2022-09-15T07:24:07.761Z,99.90
2022-09-15T07:26:36.859Z,99.90
2022-09-15T07:29:07.399Z,99.90
2022-09-15T07:31:37.359Z,99.90
2022-09-15T07:34:08.497Z,99.90
2022-09-15T07:36:37.086Z,99.90
2022-09-15T07:39:06.065Z,99.90
2022-09-15T07:41:34.591Z,99.90
2022-09-15T07:44:03.463Z,99.90
2022-09-15T07:46:33.646Z,99.90
2022-09-15T07:49:03.440Z,99.90
2022-09-15T07:51:33.623Z,99.90
2022-09-15T07:54:02.242Z,99.90
2022-09-15T07:56:30.853Z,99.90
2022-09-15T07:58:59.604Z,99.90
2022-09-15T08:01:28.142Z,99.90
2022-09-15T08:03:56.671Z,99.90
2022-09-15T08:06:27.318Z,99.90
2022-09-15T08:09:00.628Z,99.90
2022-09-15T08:11:30.105Z,99.90
2022-09-15T08:14:01.645Z,99.90
2022-09-15T08:16:30.237Z,99.90
2022-09-15T08:18:58.733Z,99.90
2022-09-15T08:21:27.835Z,99.90
2022-09-15T08:23:59.387Z,96.90
2022-09-15T08:26:29.090Z,72.90
2022-09-15T08:28:58.156Z,47.70
2022-09-15T08:31:26.743Z,35.80
2022-09-15T08:33:56.624Z,12.10
2022-09-15T08:36:27.704Z,1.00
2022-09-15T08:38:58.226Z,16.20
2022-09-15T08:41:30.088Z,1.00
2022-09-15T08:44:03.759Z,2.30
2022-09-15T08:46:39.762Z,8.20
2022-09-15T08:49:14.467Z,1.00
2022-09-15T08:51:47.485Z,12.70
2022-09-15T08:54:22.467Z,10.80
2022-09-15T08:56:52.040Z,1.00
2022-09-15T08:59:21.962Z,1.00
2022-09-15T09:02:03.325Z,1.00
2022-09-15T09:04:50.179Z,1.00
2022-09-15T09:07:31.780Z,1.00
2022-09-15T09:10:11.081Z,1.00
2022-09-15T09:12:56.693Z,1.00
2022-09-15T09:15:34.062Z,1.00
2022-09-15T09:18:28.543Z,1.00
2022-09-15T09:21:03.150Z,1.00
2022-09-15T09:23:34.629Z,1.00
2022-09-15T09:26:08.629Z,1.00
2022-09-15T09:28:43.444Z,1.00
2022-09-15T09:31:18.441Z,1.00
2022-09-15T09:33:52.783Z,1.00
2022-09-15T09:36:21.611Z,1.00
2022-09-15T09:38:51.307Z,1.00
2022-09-15T09:41:25.410Z,1.00
2022-09-15T09:43:56.208Z,1.00
2022-09-15T09:46:24.716Z,1.00
2022-09-15T09:48:58.346Z,1.00
2022-09-15T09:51:35.718Z,1.00
2022-09-15T09:54:12.924Z,99.90
2022-09-15T09:56:43.054Z,99.90
2022-09-15T09:59:35.695Z,1.00
2022-09-15T10:02:18.643Z,1.00
2022-09-15T10:04:48.748Z,1.00
2022-09-15T10:07:19.595Z,1.00
2022-09-15T10:09:54.506Z,1.00
2022-09-15T10:12:30.168Z,1.00
2022-09-15T10:15:00.671Z,1.00
2022-09-15T10:17:40.695Z,1.00
2022-09-15T10:20:25.549Z,18.90
2022-09-15T10:23:02.410Z,45.60
2022-09-15T10:25:57.687Z,1.00
2022-09-15T10:28:28.623Z,1.00
2022-09-15T10:31:03.465Z,1.00
2022-09-15T10:33:35.153Z,1.00
2022-09-15T10:36:07.552Z,1.00
2022-09-15T10:38:43.741Z,99.90
2022-09-15T10:41:23.352Z,99.90
2022-09-15T10:44:22.945Z,69.80
2022-09-15T10:47:03.304Z,99.90
2022-09-15T10:49:53.470Z,99.90
2022-09-15T10:52:31.435Z,66.60
2022-09-15T10:55:15.698Z,99.90
2022-09-15T10:58:07.383Z,99.90
2022-09-15T11:00:45.871Z,1.00
2022-09-15T11:03:46.743Z,1.00
2022-09-15T11:06:23.040Z,99.90
2022-09-15T11:09:03.611Z,1.00
2022-09-15T11:11:41.724Z,1.00
2022-09-15T11:14:26.807Z,99.90
2022-09-15T11:17:08.436Z,99.90
2022-09-15T11:19:59.343Z,1.00
2022-09-15T11:22:33.100Z,99.90
2022-09-15T11:25:03.779Z,99.90
2022-09-15T11:27:36.809Z,99.90
2022-09-15T11:30:14.926Z,1.00
2022-09-15T11:32:52.936Z,1.00
2022-09-15T11:35:35.659Z,31.20
2022-09-15T11:38:18.213Z,1.00
2022-09-15T11:40:52.100Z,4.40
2022-09-15T11:43:28.872Z,1.00
2022-09-15T11:46:00.755Z,1.00
2022-09-15T11:48:34.716Z,1.00
2022-09-15T11:51:06.075Z,1.00
2022-09-15T11:53:38.769Z,99.90
2022-09-15T11:56:16.101Z,1.00
2022-09-15T11:58:56.269Z,99.90
2022-09-15T12:01:27.796Z,99.90
2022-09-15T12:04:02.323Z,1.00
2022-09-15T12:06:35.476Z,99.90
2022-09-15T12:09:05.937Z,1.00
2022-09-15T12:11:42.177Z,99.90
2022-09-15T12:14:15.315Z,1.00
2022-09-15T12:16:44.796Z,1.00
2022-09-15T12:19:19.562Z,1.00
2022-09-15T12:21:57.155Z,99.90
2022-09-15T12:24:35.039Z,99.90
2022-09-15T12:27:03.848Z,1.00
2022-09-15T12:29:41.924Z,1.00
2022-09-15T12:32:22.895Z,1.00
2022-09-15T12:35:05.560Z,99.90
2022-09-15T12:37:40.890Z,99.90
2022-09-15T12:40:28.758Z,99.90
2022-09-15T12:42:57.918Z,99.90
2022-09-15T12:45:29.090Z,1.00
2022-09-15T12:48:03.195Z,99.90
2022-09-15T12:50:36.361Z,1.00
2022-09-15T12:53:15.411Z,1.00
2022-09-15T12:55:51.687Z,1.00
2022-09-15T12:58:30.823Z,99.90
2022-09-15T13:01:35.233Z,92.90
2022-09-15T13:04:24.827Z,1.00
2022-09-15T13:07:32.564Z,1.00
2022-09-15T13:10:17.116Z,1.00
2022-09-15T13:12:53.598Z,1.00
2022-09-15T13:15:25.239Z,1.00
2022-09-15T13:17:55.656Z,1.00
2022-09-15T13:20:31.243Z,1.00
2022-09-15T13:23:02.573Z,99.90
2022-09-15T13:25:32.391Z,99.90
2022-09-15T13:28:03.088Z,99.90
2022-09-15T13:30:40.890Z,1.00
2022-09-15T13:33:24.327Z,1.00
2022-09-15T13:36:09.359Z,1.00
2022-09-15T13:39:06.217Z,1.00
2022-09-15T13:41:59.576Z,99.90
2022-09-15T13:45:00.499Z,99.90
2022-09-15T13:47:43.061Z,1.00
2022-09-15T13:50:16.164Z,99.90
2022-09-15T13:53:02.784Z,99.90
2022-09-15T13:55:34.433Z,1.00
2022-09-15T14:01:00.763Z,1.00
2022-09-15T14:03:37.333Z,1.00
2022-09-15T14:06:16.289Z,1.00
2022-09-15T14:08:47.345Z,1.00
2022-09-15T14:11:23.147Z,1.00
2022-09-15T14:13:52.666Z,1.00
2022-09-15T14:16:24.956Z,1.00
2022-09-15T14:18:55.353Z,1.00
2022-09-15T14:21:25.405Z,1.00
2022-09-15T14:23:56.021Z,1.00
2022-09-15T14:26:28.301Z,99.90
2022-09-15T14:28:59.283Z,99.90
2022-09-15T14:31:33.374Z,99.90
2022-09-15T14:34:03.383Z,99.90
2022-09-15T14:36:33.195Z,99.90
2022-09-15T14:39:23.675Z,99.90
2022-09-15T14:41:53.807Z,99.90
2022-09-15T14:47:21.619Z,99.90
2022-09-15T14:49:50.264Z,99.90
2022-09-15T14:52:28.841Z,99.90
2022-09-15T14:55:03.382Z,99.90
2022-09-15T14:57:37.489Z,99.90
2022-09-15T15:00:11.346Z,99.90
2022-09-15T15:02:50.364Z,99.90
2022-09-15T15:05:24.835Z,99.90
2022-09-15T15:07:55.408Z,99.90
2022-09-15T15:10:29.268Z,99.90
2022-09-15T15:13:06.231Z,99.90
2022-09-15T15:15:35.469Z,1.00
2022-09-15T15:18:07.451Z,1.00
2022-09-15T15:20:36.207Z,1.00
2022-09-15T15:23:13.307Z,1.00
2022-09-15T15:25:42.580Z,99.90
2022-09-15T15:28:31.313Z,99.90
2022-09-15T15:31:17.619Z,99.90
2022-09-15T15:33:48.529Z,99.90
2022-09-15T15:36:21.342Z,99.90
2022-09-15T15:38:53.433Z,99.90
2022-09-15T15:41:24.656Z,99.90
2022-09-15T15:43:59.778Z,99.90
2022-09-15T15:46:53.531Z,99.90
2022-09-15T15:49:26.076Z,99.90
2022-09-15T15:51:55.411Z,99.90
2022-09-15T15:54:24.080Z,99.90
2022-09-15T15:56:53.117Z,1.00
2022-09-15T15:59:23.197Z,1.00
2022-09-15T16:01:54.067Z,1.00
2022-09-15T16:04:22.534Z,1.00
2022-09-15T16:06:52.098Z,1.00
2022-09-15T16:09:21.504Z,1.00
2022-09-15T16:11:50.995Z,1.00
2022-09-15T16:14:19.506Z,1.00
2022-09-15T16:16:49.489Z,1.00
2022-09-15T16:19:17.952Z,1.00
2022-09-15T16:21:46.507Z,1.00
2022-09-15T16:24:16.439Z,1.00
2022-09-15T16:26:45.136Z,1.00
2022-09-15T16:29:13.998Z,1.00
2022-09-15T16:31:43.063Z,1.00
2022-09-15T16:34:17.721Z,23.80
2022-09-15T16:36:46.499Z,99.90
2022-09-15T16:39:14.985Z,99.90
2022-09-15T16:41:43.465Z,99.90
2022-09-15T16:44:19.476Z,99.90
2022-09-15T16:46:47.913Z,99.90
2022-09-15T16:49:18.312Z,1.00
2022-09-15T16:51:46.791Z,1.00
2022-09-15T16:54:17.943Z,1.00
2022-09-15T16:56:47.104Z,1.00
2022-09-15T16:59:15.766Z,1.00
2022-09-15T17:01:44.203Z,1.00
2022-09-15T17:04:16.692Z,1.00
2022-09-15T17:06:46.755Z,1.00
2022-09-15T17:09:15.171Z,99.90
2022-09-15T17:11:43.624Z,99.90
2022-09-15T17:14:15.862Z,99.90
2022-09-15T17:16:47.436Z,99.90
2022-09-15T17:19:15.962Z,99.90
2022-09-15T17:21:44.415Z,99.90
2022-09-15T17:24:14.510Z,99.90
2022-09-15T17:26:43.009Z,99.90
2022-09-15T17:29:11.535Z,99.90
2022-09-15T17:31:40.006Z,99.90
2022-09-15T17:34:14.393Z,1.00
2022-09-15T17:36:42.889Z,1.00
2022-09-15T17:39:11.272Z,1.00
2022-09-15T17:41:41.137Z,1.00
2022-09-15T17:44:11.839Z,1.00
2022-09-15T17:46:40.539Z,99.90
2022-09-15T17:49:09.100Z,99.90
2022-09-15T17:51:37.543Z,99.90
2022-09-15T17:54:07.572Z,99.90
2022-09-15T17:56:35.988Z,1.00
2022-09-15T17:59:05.826Z,1.00
2022-09-15T18:01:34.510Z,1.00
2022-09-15T18:04:03.395Z,1.00
2022-09-15T18:06:31.928Z,99.90
2022-09-15T18:09:00.408Z,99.90
2022-09-15T18:11:28.960Z,99.90
2022-09-15T18:13:58.651Z,99.90
2022-09-15T18:16:29.603Z,1.00
2022-09-15T18:18:58.156Z,1.00
2022-09-15T18:21:29.553Z,1.00
2022-09-15T18:23:58.700Z,1.00
2022-09-15T18:26:27.172Z,1.00
2022-09-15T18:28:55.966Z,1.00
2022-09-15T18:31:24.593Z,1.00
2022-09-15T18:33:54.761Z,1.00
2022-09-15T18:36:23.381Z,99.90
2022-09-15T18:38:51.969Z,99.90
2022-09-15T18:41:20.428Z,99.90
2022-09-15T18:43:50.127Z,99.90
2022-09-15T18:46:18.901Z,99.90
2022-09-15T18:48:48.127Z,99.90
2022-09-15T18:51:28.925Z,1.00
2022-09-15T18:53:58.565Z,1.00
2022-09-15T18:56:27.025Z,73.40
2022-09-15T18:58:59.022Z,99.90
2022-09-15T19:01:27.496Z,1.00
2022-09-15T19:03:56.180Z,99.90
2022-09-15T19:06:26.257Z,99.90
2022-09-15T19:08:54.993Z,1.00
2022-09-15T19:11:23.508Z,99.90
2022-09-15T19:13:54.341Z,1.00
2022-09-15T19:16:34.537Z,99.90
2022-09-15T19:19:08.999Z,99.90
2022-09-15T19:21:39.155Z,1.00
2022-09-15T19:24:07.677Z,1.00
2022-09-15T19:26:37.488Z,61.30
2022-09-15T19:29:06.558Z,1.00
2022-09-15T19:31:38.503Z,99.90
2022-09-15T19:34:09.550Z,99.90
2022-09-15T19:36:39.505Z,35.30
2022-09-15T19:39:07.935Z,99.90
2022-09-15T19:41:36.271Z,99.90
2022-09-15T19:44:04.793Z,99.90
2022-09-15T19:46:33.444Z,1.00
2022-09-15T19:49:03.954Z,1.00
2022-09-15T19:51:32.701Z,1.00
2022-09-15T19:54:03.670Z,99.90
2022-09-15T19:56:32.315Z,99.90
2022-09-15T19:59:01.033Z,1.00
2022-09-15T20:01:32.855Z,5.20
2022-09-15T20:04:02.142Z,99.90
2022-09-15T20:06:32.702Z,1.00
2022-09-15T20:09:02.978Z,99.90
2022-09-15T20:11:32.793Z,1.00
2022-09-15T20:14:02.093Z,1.00
2022-09-15T20:16:31.009Z,32.30
2022-09-15T20:18:59.515Z,99.90
2022-09-15T20:21:49.376Z,99.90
2022-09-15T20:24:21.288Z,99.90
2022-09-15T20:26:49.940Z,99.90
2022-09-15T20:29:18.750Z,1.00
2022-09-15T20:31:47.876Z,1.00
2022-09-15T20:34:16.777Z,1.00
2022-09-15T20:36:45.808Z,1.00
2022-09-15T20:39:15.582Z,1.00
2022-09-15T20:41:46.061Z,1.00
2022-09-15T20:44:14.617Z,1.00
2022-09-15T20:46:43.251Z,1.00
2022-09-15T20:49:12.377Z,1.00
2022-09-15T20:51:40.863Z,1.00
2022-09-15T20:54:09.350Z,15.70
2022-09-15T20:56:38.323Z,1.00
2022-09-15T20:59:10.580Z,94.50
2022-09-15T21:01:40.522Z,99.90
2022-09-15T21:04:10.949Z,99.90
2022-09-15T21:06:39.958Z,1.00
2022-09-15T21:09:09.410Z,99.90
2022-09-15T21:11:39.327Z,1.00
2022-09-15T21:14:09.629Z,1.00
2022-09-15T21:16:38.202Z,1.00
2022-09-15T21:19:07.991Z,1.00
2022-09-15T21:21:36.931Z,1.00
2022-09-15T21:24:07.348Z,1.00
2022-09-15T21:26:58.188Z,15.30
2022-09-15T21:29:29.108Z,58.90
2022-09-15T21:31:57.889Z,99.90
2022-09-15T21:34:26.497Z,99.90
2022-09-15T21:36:55.009Z,99.90
2022-09-15T21:39:23.427Z,99.90
2022-09-15T21:41:51.861Z,99.90
2022-09-15T21:44:20.340Z,99.90
2022-09-15T21:46:52.734Z,99.90
2022-09-15T21:49:21.245Z,99.90
2022-09-15T21:51:49.733Z,99.90
2022-09-15T21:54:18.237Z,99.90
2022-09-15T21:56:46.699Z,99.90
2022-09-15T21:59:16.132Z,99.90
2022-09-15T22:01:44.641Z,99.90
2022-09-15T22:04:14.558Z,99.90
2022-09-15T22:06:43.514Z,99.90
2022-09-15T22:09:15.626Z,99.90
2022-09-15T22:11:44.595Z,99.90
2022-09-15T22:14:13.329Z,99.90
2022-09-15T22:16:43.317Z,99.90
2022-09-15T22:19:14.185Z,99.90
2022-09-15T22:21:43.211Z,99.90
2022-09-15T22:24:13.590Z,99.90
2022-09-15T22:26:43.524Z,99.90
2022-09-15T22:29:12.530Z,99.90
2022-09-15T22:31:42.167Z,99.90
2022-09-15T22:34:10.850Z,99.90
2022-09-15T22:36:40.901Z,99.90
2022-09-15T22:39:09.415Z,99.90
2022-09-15T22:41:40.007Z,99.90
2022-09-15T22:44:17.678Z,99.90
2022-09-15T22:46:46.451Z,99.90
2022-09-15T22:49:14.831Z,99.90
2022-09-15T22:51:45.905Z,99.90
2022-09-15T22:54:14.376Z,99.90
2022-09-15T22:56:42.865Z,99.90
2022-09-15T22:59:11.297Z,99.90
2022-09-15T23:01:39.900Z,99.90
2022-09-15T23:04:08.461Z,99.90
2022-09-15T23:06:36.913Z,99.90
2022-09-15T23:09:09.509Z,99.90
2022-09-15T23:11:39.908Z,99.90
2022-09-15T23:14:09.300Z,1.00
2022-09-15T23:16:37.808Z,1.00
2022-09-15T23:19:06.945Z,1.00
2022-09-15T23:21:35.484Z,99.90
2022-09-15T23:24:04.284Z,99.90
2022-09-15T23:26:34.507Z,99.90
2022-09-15T23:29:03.077Z,99.90
2022-09-15T23:31:31.619Z,99.90
2022-09-15T23:34:00.223Z,1.00
2022-09-15T23:36:28.750Z,1.00
2022-09-15T23:38:57.138Z,1.00
2022-09-15T23:41:25.745Z,1.00
2022-09-15T23:43:57.014Z,1.00
2022-09-15T23:46:25.630Z,1.00
2022-09-15T23:48:54.313Z,99.90
2022-09-15T23:51:22.846Z,99.90
2022-09-15T23:53:51.447Z,99.90
2022-09-15T23:56:19.927Z,99.90
2022-09-15T23:58:48.446Z,99.90
